sensor_id;sensor_type;location;lat;lon;timestamp;temperature;humidity
18207;DHT22;9229;52.354;20.886;2022-11-20T00:04:38;-2.90;99.90
18207;DHT22;9229;52.354;20.886;2022-11-20T00:09:40;-2.90;99.90
18207;DHT22;9229;52.354;20.886;2022-11-20T00:14:43;-2.90;99.90
18207;DHT22;9229;52.354;20.886;2022-11-20T00:19:45;-2.90;99.90
18207;DHT22;9229;52.354;20.886;2022-11-20T00:24:47;-2.90;99.90
18207;DHT22;9229;52.354;20.886;2022-11-20T00:29:50;-3.00;99.90
18207;DHT22;9229;52.354;20.886;2022-11-20T00:34:52;-3.00;99.90
18207;DHT22;9229;52.354;20.886;2022-11-20T00:39:54;-3.10;99.90
18207;DHT22;9229;52.354;20.886;2022-11-20T00:44:58;-3.00;99.90
18207;DHT22;9229;52.354;20.886;2022-11-20T00:50:00;-3.10;99.90
18207;DHT22;9229;52.354;20.886;2022-11-20T00:55:03;-3.00;99.90
18207;DHT22;9229;52.354;20.886;2022-11-20T01:00:08;-3.00;99.90
18207;DHT22;9229;52.354;20.886;2022-11-20T01:05:10;-3.00;99.90
18207;DHT22;9229;52.354;20.886;2022-11-20T01:10:12;-3.00;99.90
18207;DHT22;9229;52.354;20.886;2022-11-20T01:15:15;-3.00;99.90
18207;DHT22;9229;52.354;20.886;2022-11-20T01:20:18;-3.00;99.90
18207;DHT22;9229;52.354;20.886;2022-11-20T01:25:20;-2.90;99.90
18207;DHT22;9229;52.354;20.886;2022-11-20T01:30:23;-2.90;99.90
18207;DHT22;9229;52.354;20.886;2022-11-20T01:35:25;-2.90;99.90
18207;DHT22;9229;52.354;20.886;2022-11-20T01:40:27;-2.80;99.90
18207;DHT22;9229;52.354;20.886;2022-11-20T01:46:02;-2.80;99.90
18207;DHT22;9229;52.354;20.886;2022-11-20T01:51:09;-2.80;99.90
18207;DHT22;9229;52.354;20.886;2022-11-20T01:56:14;-2.70;99.90
18207;DHT22;9229;52.354;20.886;2022-11-20T02:01:18;-2.80;99.90
18207;DHT22;9229;52.354;20.886;2022-11-20T02:06:24;-2.80;99.90
18207;DHT22;9229;52.354;20.886;2022-11-20T02:11:26;-2.80;99.90
18207;DHT22;9229;52.354;20.886;2022-11-20T02:16:32;-2.70;99.90
18207;DHT22;9229;52.354;20.886;2022-11-20T02:21:39;-2.70;99.90
18207;DHT22;9229;52.354;20.886;2022-11-20T02:26:47;-2.80;99.90
18207;DHT22;9229;52.354;20.886;2022-11-20T02:31:51;-2.70;99.90
18207;DHT22;9229;52.354;20.886;2022-11-20T02:36:55;-2.80;99.90
18207;DHT22;9229;52.354;20.886;2022-11-20T02:42:00;-2.70;99.90
18207;DHT22;9229;52.354;20.886;2022-11-20T02:47:03;-2.60;99.90
18207;DHT22;9229;52.354;20.886;2022-11-20T02:52:04;-2.60;99.90
18207;DHT22;9229;52.354;20.886;2022-11-20T02:57:08;-2.60;99.90
18207;DHT22;9229;52.354;20.886;2022-11-20T03:02:10;-2.60;99.90
18207;DHT22;9229;52.354;20.886;2022-11-20T03:07:12;-2.50;99.90
18207;DHT22;9229;52.354;20.886;2022-11-20T03:12:15;-2.50;99.90
18207;DHT22;9229;52.354;20.886;2022-11-20T03:17:17;-2.50;99.90
18207;DHT22;9229;52.354;20.886;2022-11-20T03:22:19;-2.50;99.90
18207;DHT22;9229;52.354;20.886;2022-11-20T03:27:23;-2.50;99.90
18207;DHT22;9229;52.354;20.886;2022-11-20T03:32:26;-2.50;99.90
18207;DHT22;9229;52.354;20.886;2022-11-20T03:37:28;-2.50;99.90
18207;DHT22;9229;52.354;20.886;2022-11-20T03:42:31;-2.50;99.90
18207;DHT22;9229;52.354;20.886;2022-11-20T03:47:49;-2.50;99.90
18207;DHT22;9229;52.354;20.886;2022-11-20T03:52:51;-2.60;99.90
18207;DHT22;9229;52.354;20.886;2022-11-20T03:57:54;-2.60;99.90
18207;DHT22;9229;52.354;20.886;2022-11-20T04:02:57;-2.60;99.90
18207;DHT22;9229;52.354;20.886;2022-11-20T04:08:00;-2.60;99.90
18207;DHT22;9229;52.354;20.886;2022-11-20T04:13:03;-2.70;99.90
18207;DHT22;9229;52.354;20.886;2022-11-20T04:18:05;-2.80;99.90
18207;DHT22;9229;52.354;20.886;2022-11-20T04:23:07;-2.80;99.90
18207;DHT22;9229;52.354;20.886;2022-11-20T04:28:10;-2.80;99.90
18207;DHT22;9229;52.354;20.886;2022-11-20T04:33:12;-2.80;99.90
18207;DHT22;9229;52.354;20.886;2022-11-20T04:38:14;-2.90;99.90
18207;DHT22;9229;52.354;20.886;2022-11-20T04:43:17;-2.90;99.90
18207;DHT22;9229;52.354;20.886;2022-11-20T04:48:19;-2.90;99.90
18207;DHT22;9229;52.354;20.886;2022-11-20T04:53:22;-3.00;99.90
18207;DHT22;9229;52.354;20.886;2022-11-20T04:58:26;-2.90;99.90
18207;DHT22;9229;52.354;20.886;2022-11-20T05:03:28;-3.20;99.90
18207;DHT22;9229;52.354;20.886;2022-11-20T05:08:31;-3.30;99.90
18207;DHT22;9229;52.354;20.886;2022-11-20T05:13:35;-3.40;99.90
18207;DHT22;9229;52.354;20.886;2022-11-20T05:18:38;-3.50;99.90
18207;DHT22;9229;52.354;20.886;2022-11-20T05:23:41;-3.60;99.90
18207;DHT22;9229;52.354;20.886;2022-11-20T05:28:44;-3.70;99.90
18207;DHT22;9229;52.354;20.886;2022-11-20T05:33:46;-3.80;99.90
18207;DHT22;9229;52.354;20.886;2022-11-20T05:38:48;-3.90;99.90
18207;DHT22;9229;52.354;20.886;2022-11-20T05:43:51;-3.90;99.90
18207;DHT22;9229;52.354;20.886;2022-11-20T05:48:53;-4.00;99.90
18207;DHT22;9229;52.354;20.886;2022-11-20T05:53:56;-4.00;99.90
18207;DHT22;9229;52.354;20.886;2022-11-20T05:59:01;-4.00;99.90
18207;DHT22;9229;52.354;20.886;2022-11-20T06:04:03;-4.10;99.90
18207;DHT22;9229;52.354;20.886;2022-11-20T06:09:05;-4.10;99.90
18207;DHT22;9229;52.354;20.886;2022-11-20T06:14:09;-4.10;99.90
18207;DHT22;9229;52.354;20.886;2022-11-20T06:19:10;-4.10;99.90
18207;DHT22;9229;52.354;20.886;2022-11-20T06:24:12;-4.10;99.90
18207;DHT22;9229;52.354;20.886;2022-11-20T06:29:16;-4.10;99.90
18207;DHT22;9229;52.354;20.886;2022-11-20T06:34:17;-4.10;99.90
18207;DHT22;9229;52.354;20.886;2022-11-20T06:39:19;-4.10;99.90
18207;DHT22;9229;52.354;20.886;2022-11-20T06:44:22;-4.00;99.90
18207;DHT22;9229;52.354;20.886;2022-11-20T06:49:25;-4.00;99.90
18207;DHT22;9229;52.354;20.886;2022-11-20T06:54:27;-4.00;99.90
18207;DHT22;9229;52.354;20.886;2022-11-20T06:59:31;-3.90;99.90
18207;DHT22;9229;52.354;20.886;2022-11-20T07:04:33;-3.90;99.90
18207;DHT22;9229;52.354;20.886;2022-11-20T07:09:34;-3.90;99.90
18207;DHT22;9229;52.354;20.886;2022-11-20T07:14:38;-3.90;99.90
18207;DHT22;9229;52.354;20.886;2022-11-20T07:19:42;-3.90;99.90
18207;DHT22;9229;52.354;20.886;2022-11-20T07:24:46;-3.80;99.90
18207;DHT22;9229;52.354;20.886;2022-11-20T07:29:50;-3.60;99.90
18207;DHT22;9229;52.354;20.886;2022-11-20T07:34:52;-3.60;99.90
18207;DHT22;9229;52.354;20.886;2022-11-20T07:39:53;-3.60;99.90
18207;DHT22;9229;52.354;20.886;2022-11-20T07:44:57;-3.40;99.90
18207;DHT22;9229;52.354;20.886;2022-11-20T07:49:59;-3.30;99.90
18207;DHT22;9229;52.354;20.886;2022-11-20T07:55:03;-3.30;99.90
18207;DHT22;9229;52.354;20.886;2022-11-20T08:00:09;-3.20;99.90
18207;DHT22;9229;52.354;20.886;2022-11-20T08:05:14;-3.10;99.90
18207;DHT22;9229;52.354;20.886;2022-11-20T08:10:16;-2.90;99.90
18207;DHT22;9229;52.354;20.886;2022-11-20T08:15:19;-2.90;99.90
18207;DHT22;9229;52.354;20.886;2022-11-20T08:20:21;-2.80;99.90
18207;DHT22;9229;52.354;20.886;2022-11-20T08:25:23;-2.60;99.90
18207;DHT22;9229;52.354;20.886;2022-11-20T08:30:27;-2.50;99.90
18207;DHT22;9229;52.354;20.886;2022-11-20T08:35:32;-2.40;99.90
18207;DHT22;9229;52.354;20.886;2022-11-20T08:40:35;-2.30;99.90
18207;DHT22;9229;52.354;20.886;2022-11-20T08:45:38;-2.10;99.90
18207;DHT22;9229;52.354;20.886;2022-11-20T08:50:40;-1.90;99.90
18207;DHT22;9229;52.354;20.886;2022-11-20T08:55:45;-1.80;99.90
18207;DHT22;9229;52.354;20.886;2022-11-20T09:00:49;-1.60;99.90
18207;DHT22;9229;52.354;20.886;2022-11-20T09:05:57;-1.50;99.90
18207;DHT22;9229;52.354;20.886;2022-11-20T09:10:59;-1.30;99.90
18207;DHT22;9229;52.354;20.886;2022-11-20T09:16:04;-1.10;99.90
18207;DHT22;9229;52.354;20.886;2022-11-20T09:21:12;-0.90;99.90
18207;DHT22;9229;52.354;20.886;2022-11-20T09:26:14;-0.80;99.90
18207;DHT22;9229;52.354;20.886;2022-11-20T09:31:22;-0.50;99.90
18207;DHT22;9229;52.354;20.886;2022-11-20T09:36:24;-0.20;99.90
18207;DHT22;9229;52.354;20.886;2022-11-20T09:41:46;-0.10;99.90
18207;DHT22;9229;52.354;20.886;2022-11-20T09:47:00;0.20;99.90
18207;DHT22;9229;52.354;20.886;2022-11-20T09:52:13;0.50;99.90
18207;DHT22;9229;52.354;20.886;2022-11-20T09:57:20;0.90;99.90
18207;DHT22;9229;52.354;20.886;2022-11-20T10:02:29;1.40;99.90
18207;DHT22;9229;52.354;20.886;2022-11-20T10:07:39;1.70;99.90
18207;DHT22;9229;52.354;20.886;2022-11-20T10:12:54;2.00;99.90
18207;DHT22;9229;52.354;20.886;2022-11-20T10:18:23;2.00;99.90
18207;DHT22;9229;52.354;20.886;2022-11-20T10:23:41;2.00;99.90
18207;DHT22;9229;52.354;20.886;2022-11-20T10:28:56;2.00;99.90
18207;DHT22;9229;52.354;20.886;2022-11-20T10:34:06;2.30;99.90
18207;DHT22;9229;52.354;20.886;2022-11-20T10:39:16;2.70;99.90
18207;DHT22;9229;52.354;20.886;2022-11-20T10:44:21;2.80;99.90
18207;DHT22;9229;52.354;20.886;2022-11-20T10:49:47;2.60;99.90
18207;DHT22;9229;52.354;20.886;2022-11-20T10:54:56;2.40;99.90
18207;DHT22;9229;52.354;20.886;2022-11-20T11:00:04;2.60;99.90
18207;DHT22;9229;52.354;20.886;2022-11-20T11:05:22;3.00;99.90
18207;DHT22;9229;52.354;20.886;2022-11-20T11:10:34;3.10;99.90
18207;DHT22;9229;52.354;20.886;2022-11-20T11:15:39;2.80;99.90
18207;DHT22;9229;52.354;20.886;2022-11-20T11:20:49;2.70;99.90
18207;DHT22;9229;52.354;20.886;2022-11-20T11:25:57;2.60;99.90
18207;DHT22;9229;52.354;20.886;2022-11-20T11:30:59;2.70;99.90
18207;DHT22;9229;52.354;20.886;2022-11-20T11:36:16;2.70;99.90
18207;DHT22;9229;52.354;20.886;2022-11-20T11:41:23;2.70;99.90
18207;DHT22;9229;52.354;20.886;2022-11-20T11:46:31;2.70;99.90
18207;DHT22;9229;52.354;20.886;2022-11-20T11:51:41;2.60;99.90
18207;DHT22;9229;52.354;20.886;2022-11-20T11:56:48;2.60;99.90
18207;DHT22;9229;52.354;20.886;2022-11-20T12:01:54;2.40;99.90
18207;DHT22;9229;52.354;20.886;2022-11-20T12:07:03;2.40;99.90
18207;DHT22;9229;52.354;20.886;2022-11-20T12:12:11;2.40;99.90
18207;DHT22;9229;52.354;20.886;2022-11-20T12:17:16;2.40;99.90
18207;DHT22;9229;52.354;20.886;2022-11-20T12:22:28;2.40;99.90
18207;DHT22;9229;52.354;20.886;2022-11-20T12:33:20;2.60;99.90
18207;DHT22;9229;52.354;20.886;2022-11-20T12:44:06;2.70;99.90
18207;DHT22;9229;52.354;20.886;2022-11-20T12:49:36;2.70;99.90
18207;DHT22;9229;52.354;20.886;2022-11-20T12:55:04;2.70;99.90
18207;DHT22;9229;52.354;20.886;2022-11-20T13:00:14;2.70;99.90
18207;DHT22;9229;52.354;20.886;2022-11-20T13:05:24;2.70;99.90
18207;DHT22;9229;52.354;20.886;2022-11-20T13:10:33;2.60;99.90
18207;DHT22;9229;52.354;20.886;2022-11-20T13:15:46;2.50;99.90
18207;DHT22;9229;52.354;20.886;2022-11-20T13:20:50;2.20;99.90
18207;DHT22;9229;52.354;20.886;2022-11-20T13:26:05;2.00;99.90
18207;DHT22;9229;52.354;20.886;2022-11-20T13:31:11;1.80;99.90
18207;DHT22;9229;52.354;20.886;2022-11-20T13:36:27;1.70;99.90
18207;DHT22;9229;52.354;20.886;2022-11-20T13:41:32;1.60;99.90
18207;DHT22;9229;52.354;20.886;2022-11-20T13:46:39;1.60;99.90
18207;DHT22;9229;52.354;20.886;2022-11-20T13:51:45;1.50;99.90
18207;DHT22;9229;52.354;20.886;2022-11-20T13:56:59;1.40;99.90
18207;DHT22;9229;52.354;20.886;2022-11-20T14:02:08;1.30;99.90
18207;DHT22;9229;52.354;20.886;2022-11-20T14:07:12;1.30;99.90
18207;DHT22;9229;52.354;20.886;2022-11-20T14:12:18;1.20;99.90
18207;DHT22;9229;52.354;20.886;2022-11-20T14:17:21;1.10;99.90
18207;DHT22;9229;52.354;20.886;2022-11-20T14:22:25;1.00;99.90
18207;DHT22;9229;52.354;20.886;2022-11-20T14:27:29;0.90;99.90
18207;DHT22;9229;52.354;20.886;2022-11-20T14:32:31;0.80;99.90
18207;DHT22;9229;52.354;20.886;2022-11-20T14:37:35;0.80;99.90
18207;DHT22;9229;52.354;20.886;2022-11-20T14:42:44;0.70;99.90
18207;DHT22;9229;52.354;20.886;2022-11-20T14:47:46;0.50;99.90
18207;DHT22;9229;52.354;20.886;2022-11-20T14:52:51;0.50;99.90
18207;DHT22;9229;52.354;20.886;2022-11-20T14:57:59;0.30;99.90
18207;DHT22;9229;52.354;20.886;2022-11-20T15:03:02;0.30;99.90
18207;DHT22;9229;52.354;20.886;2022-11-20T15:08:07;0.20;99.90
18207;DHT22;9229;52.354;20.886;2022-11-20T15:13:13;0.20;99.90
18207;DHT22;9229;52.354;20.886;2022-11-20T15:18:19;0.20;99.90
18207;DHT22;9229;52.354;20.886;2022-11-20T15:23:22;0.10;99.90
18207;DHT22;9229;52.354;20.886;2022-11-20T15:28:29;0.00;99.90
18207;DHT22;9229;52.354;20.886;2022-11-20T15:33:33;0.00;99.90
18207;DHT22;9229;52.354;20.886;2022-11-20T15:38:37;-0.10;99.90
18207;DHT22;9229;52.354;20.886;2022-11-20T15:43:41;-0.10;99.90
18207;DHT22;9229;52.354;20.886;2022-11-20T15:48:44;-0.10;99.90
18207;DHT22;9229;52.354;20.886;2022-11-20T15:53:47;-0.20;99.90
18207;DHT22;9229;52.354;20.886;2022-11-20T15:58:50;-0.30;99.90
18207;DHT22;9229;52.354;20.886;2022-11-20T16:03:52;-0.40;99.90
18207;DHT22;9229;52.354;20.886;2022-11-20T16:08:54;-0.50;99.90
18207;DHT22;9229;52.354;20.886;2022-11-20T16:14:00;-0.60;99.90
18207;DHT22;9229;52.354;20.886;2022-11-20T16:19:19;-0.70;99.90
18207;DHT22;9229;52.354;20.886;2022-11-20T16:24:21;-0.80;99.90
18207;DHT22;9229;52.354;20.886;2022-11-20T16:29:25;-0.90;99.90
18207;DHT22;9229;52.354;20.886;2022-11-20T16:34:27;-1.00;99.90
18207;DHT22;9229;52.354;20.886;2022-11-20T16:39:29;-1.00;99.90
18207;DHT22;9229;52.354;20.886;2022-11-20T16:44:32;-1.10;99.90
18207;DHT22;9229;52.354;20.886;2022-11-20T16:49:35;-1.10;99.90
18207;DHT22;9229;52.354;20.886;2022-11-20T16:54:37;-1.30;99.90
18207;DHT22;9229;52.354;20.886;2022-11-20T16:59:40;-1.40;99.90
18207;DHT22;9229;52.354;20.886;2022-11-20T17:04:42;-1.50;99.90
18207;DHT22;9229;52.354;20.886;2022-11-20T17:09:44;-1.50;99.90
18207;DHT22;9229;52.354;20.886;2022-11-20T17:14:47;-1.60;99.90
18207;DHT22;9229;52.354;20.886;2022-11-20T17:19:49;-1.70;99.90
18207;DHT22;9229;52.354;20.886;2022-11-20T17:24:51;-1.70;99.90
18207;DHT22;9229;52.354;20.886;2022-11-20T17:29:54;-1.60;99.90
18207;DHT22;9229;52.354;20.886;2022-11-20T17:34:58;-1.50;99.90
18207;DHT22;9229;52.354;20.886;2022-11-20T17:40:00;-1.50;99.90
18207;DHT22;9229;52.354;20.886;2022-11-20T17:45:04;-1.40;99.90
18207;DHT22;9229;52.354;20.886;2022-11-20T17:50:07;-1.40;99.90
18207;DHT22;9229;52.354;20.886;2022-11-20T17:55:08;-1.40;99.90
18207;DHT22;9229;52.354;20.886;2022-11-20T18:00:13;-1.50;99.90
18207;DHT22;9229;52.354;20.886;2022-11-20T18:05:16;-1.50;99.90
18207;DHT22;9229;52.354;20.886;2022-11-20T18:10:19;-1.70;99.90
18207;DHT22;9229;52.354;20.886;2022-11-20T18:15:22;-1.80;99.90
18207;DHT22;9229;52.354;20.886;2022-11-20T18:20:23;-1.80;99.90
18207;DHT22;9229;52.354;20.886;2022-11-20T18:25:26;-1.90;99.90
18207;DHT22;9229;52.354;20.886;2022-11-20T18:30:29;-1.90;99.90
18207;DHT22;9229;52.354;20.886;2022-11-20T18:35:31;-1.90;99.90
18207;DHT22;9229;52.354;20.886;2022-11-20T18:40:34;-2.00;99.90
18207;DHT22;9229;52.354;20.886;2022-11-20T18:45:37;-2.00;99.90
18207;DHT22;9229;52.354;20.886;2022-11-20T18:50:39;-2.10;99.90
18207;DHT22;9229;52.354;20.886;2022-11-20T18:55:41;-2.10;99.90
18207;DHT22;9229;52.354;20.886;2022-11-20T19:00:44;-2.10;99.90
18207;DHT22;9229;52.354;20.886;2022-11-20T19:05:45;-2.20;99.90
18207;DHT22;9229;52.354;20.886;2022-11-20T19:10:48;-2.30;99.90
18207;DHT22;9229;52.354;20.886;2022-11-20T19:15:51;-2.30;99.90
18207;DHT22;9229;52.354;20.886;2022-11-20T19:20:52;-2.30;99.90
18207;DHT22;9229;52.354;20.886;2022-11-20T19:25:59;-2.30;99.90
18207;DHT22;9229;52.354;20.886;2022-11-20T19:31:04;-2.40;99.90
18207;DHT22;9229;52.354;20.886;2022-11-20T19:36:10;-2.30;99.90
18207;DHT22;9229;52.354;20.886;2022-11-20T19:41:14;-2.40;99.90
18207;DHT22;9229;52.354;20.886;2022-11-20T19:46:17;-2.40;99.90
18207;DHT22;9229;52.354;20.886;2022-11-20T19:51:22;-2.40;99.90
18207;DHT22;9229;52.354;20.886;2022-11-20T19:56:25;-2.50;99.90
18207;DHT22;9229;52.354;20.886;2022-11-20T20:01:29;-2.50;99.90
18207;DHT22;9229;52.354;20.886;2022-11-20T20:06:32;-2.50;99.90
18207;DHT22;9229;52.354;20.886;2022-11-20T20:11:34;-2.60;99.90
18207;DHT22;9229;52.354;20.886;2022-11-20T20:16:38;-2.60;99.90
18207;DHT22;9229;52.354;20.886;2022-11-20T20:21:40;-2.60;99.90
18207;DHT22;9229;52.354;20.886;2022-11-20T20:26:42;-2.60;99.90
18207;DHT22;9229;52.354;20.886;2022-11-20T20:31:45;-2.60;99.90
18207;DHT22;9229;52.354;20.886;2022-11-20T20:36:47;-2.50;99.90
18207;DHT22;9229;52.354;20.886;2022-11-20T20:41:50;-2.50;99.90
18207;DHT22;9229;52.354;20.886;2022-11-20T20:46:53;-2.50;99.90
18207;DHT22;9229;52.354;20.886;2022-11-20T20:51:55;-2.60;99.90
18207;DHT22;9229;52.354;20.886;2022-11-20T20:56:58;-2.60;99.90
18207;DHT22;9229;52.354;20.886;2022-11-20T21:02:01;-2.60;99.90
18207;DHT22;9229;52.354;20.886;2022-11-20T21:07:03;-2.50;99.90
18207;DHT22;9229;52.354;20.886;2022-11-20T21:12:05;-2.50;99.90
18207;DHT22;9229;52.354;20.886;2022-11-20T21:17:08;-2.40;99.90
18207;DHT22;9229;52.354;20.886;2022-11-20T21:22:10;-2.30;99.90
18207;DHT22;9229;52.354;20.886;2022-11-20T21:27:12;-2.30;99.90
18207;DHT22;9229;52.354;20.886;2022-11-20T21:32:15;-2.20;99.90
18207;DHT22;9229;52.354;20.886;2022-11-20T21:37:17;-2.10;99.90
18207;DHT22;9229;52.354;20.886;2022-11-20T21:42:19;-2.10;99.90
18207;DHT22;9229;52.354;20.886;2022-11-20T21:47:22;-2.00;99.90
18207;DHT22;9229;52.354;20.886;2022-11-20T21:52:24;-2.00;99.90
18207;DHT22;9229;52.354;20.886;2022-11-20T21:57:26;-1.90;99.90
18207;DHT22;9229;52.354;20.886;2022-11-20T22:02:29;-1.80;99.90
18207;DHT22;9229;52.354;20.886;2022-11-20T22:07:31;-1.80;99.90
18207;DHT22;9229;52.354;20.886;2022-11-20T22:12:33;-1.70;99.90
18207;DHT22;9229;52.354;20.886;2022-11-20T22:17:36;-1.70;99.90
18207;DHT22;9229;52.354;20.886;2022-11-20T22:23:01;-1.70;99.90
18207;DHT22;9229;52.354;20.886;2022-11-20T22:28:03;-1.70;99.90
18207;DHT22;9229;52.354;20.886;2022-11-20T22:33:06;-1.70;99.90
18207;DHT22;9229;52.354;20.886;2022-11-20T22:38:08;-1.70;99.90
18207;DHT22;9229;52.354;20.886;2022-11-20T22:43:10;-1.80;99.90
18207;DHT22;9229;52.354;20.886;2022-11-20T22:48:13;-1.90;99.90
18207;DHT22;9229;52.354;20.886;2022-11-20T22:53:15;-1.90;99.90
18207;DHT22;9229;52.354;20.886;2022-11-20T22:58:18;-2.00;99.90
18207;DHT22;9229;52.354;20.886;2022-11-20T23:03:22;-2.10;99.90
18207;DHT22;9229;52.354;20.886;2022-11-20T23:08:23;-2.10;99.90
18207;DHT22;9229;52.354;20.886;2022-11-20T23:13:25;-2.20;99.90
18207;DHT22;9229;52.354;20.886;2022-11-20T23:18:29;-2.30;99.90
18207;DHT22;9229;52.354;20.886;2022-11-20T23:23:31;-2.30;99.90
18207;DHT22;9229;52.354;20.886;2022-11-20T23:28:33;-2.30;99.90
18207;DHT22;9229;52.354;20.886;2022-11-20T23:33:38;-2.40;99.90
18207;DHT22;9229;52.354;20.886;2022-11-20T23:38:40;-2.40;99.90
18207;DHT22;9229;52.354;20.886;2022-11-20T23:43:42;-2.40;99.90
18207;DHT22;9229;52.354;20.886;2022-11-20T23:48:45;-2.40;99.90
18207;DHT22;9229;52.354;20.886;2022-11-20T23:53:47;-2.40;99.90
18207;DHT22;9229;52.354;20.886;2022-11-20T23:58:49;-2.40;99.90
